createdAt,value
2022-11-14T00:00:11.516Z,1.10
2022-11-14T00:02:38.566Z,0.90
2022-11-14T00:05:06.913Z,0.80
2022-11-14T00:07:39.032Z,0.80
2022-11-14T00:10:16.973Z,1.00
2022-11-14T00:15:25.827Z,0.90
2022-11-14T00:17:59.695Z,0.80
2022-11-14T00:23:22.729Z,0.90
2022-11-14T00:25:49.732Z,0.90
2022-11-14T00:28:16.345Z,0.80
2022-11-14T00:30:46.594Z,0.90
2022-11-14T00:33:18.720Z,0.90
2022-11-14T00:35:57.442Z,1.00
2022-11-14T00:38:29.813Z,0.90
2022-11-14T00:43:42.424Z,0.90
2022-11-14T00:46:23.477Z,0.90
2022-11-14T00:48:50.085Z,1.00
2022-11-14T00:51:22.757Z,0.90
2022-11-14T00:53:51.383Z,0.70
2022-11-14T00:56:24.084Z,0.80
2022-11-14T00:58:55.731Z,0.80
2022-11-14T01:01:26.824Z,0.90
2022-11-14T01:03:54.618Z,0.80
2022-11-14T01:06:21.195Z,1.20
2022-11-14T01:11:37.837Z,0.60
2022-11-14T01:14:17.964Z,1.50
2022-11-14T01:16:44.555Z,0.50
2022-11-14T01:19:11.203Z,0.60
2022-11-14T01:21:37.861Z,1.30
2022-11-14T01:24:04.724Z,0.60
2022-11-14T01:26:31.452Z,0.70
2022-11-14T01:28:58.102Z,0.70
2022-11-14T01:31:25.938Z,0.60
2022-11-14T01:33:53.819Z,0.70
2022-11-14T01:36:20.980Z,0.60
2022-11-14T01:38:51.865Z,0.70
2022-11-14T01:41:18.765Z,0.60
2022-11-14T01:43:45.449Z,0.60
2022-11-14T01:46:21.899Z,1.60
2022-11-14T01:48:57.147Z,0.70
2022-11-14T01:51:29.365Z,0.60
2022-11-14T01:53:58.379Z,0.70
2022-11-14T01:56:33.469Z,0.70
2022-11-14T01:59:25.895Z,0.60
2022-11-14T02:01:56.522Z,0.60
2022-11-14T02:04:36.370Z,0.60
2022-11-14T02:07:10.597Z,0.50
2022-11-14T02:09:41.035Z,0.50
2022-11-14T02:12:09.987Z,0.40
2022-11-14T02:14:40.202Z,0.10
2022-11-14T02:17:28.537Z,0.30
2022-11-14T02:20:05.424Z,0.20
2022-11-14T02:22:32.733Z,0.40
2022-11-14T02:25:03.011Z,0.20
2022-11-14T02:27:31.714Z,0.40
2022-11-14T02:30:09.968Z,0.10
2022-11-14T02:33:08.765Z,0.20
2022-11-14T02:35:28.757Z,0.30
2022-11-14T02:37:58.628Z,0.20
2022-11-14T02:40:25.250Z,1.00
2022-11-14T02:42:51.804Z,0.00
2022-11-14T02:45:23.940Z,-0.10
2022-11-14T02:47:51.774Z,0.20
2022-11-14T02:50:21.236Z,1.50
2022-11-14T02:52:48.215Z,-1.20
2022-11-14T02:55:16.568Z,-0.10
2022-11-14T02:57:48.952Z,0.20
2022-11-14T03:00:20.097Z,0.80
2022-11-14T03:02:46.794Z,0.40
2022-11-14T03:05:13.485Z,-0.40
2022-11-14T03:07:40.110Z,0.30
2022-11-14T03:10:07.428Z,-0.20
2022-11-14T03:12:34.357Z,0.20
2022-11-14T03:15:01.024Z,0.30
2022-11-14T03:17:30.938Z,-0.10
2022-11-14T03:19:58.036Z,-0.50
2022-11-14T03:22:24.701Z,-0.30
2022-11-14T03:24:51.364Z,0.10
2022-11-14T03:27:18.052Z,-0.40
2022-11-14T03:29:44.712Z,-0.50
2022-11-14T03:32:11.379Z,-0.50
2022-11-14T03:34:38.045Z,-0.30
2022-11-14T03:37:04.718Z,-0.30
2022-11-14T03:39:31.394Z,-0.20
2022-11-14T03:41:58.060Z,-0.10
2022-11-14T03:44:24.726Z,0.50
2022-11-14T03:46:52.528Z,-0.10
2022-11-14T03:49:19.214Z,1.00
2022-11-14T03:51:45.886Z,-0.10
2022-11-14T03:54:12.539Z,-0.10
2022-11-14T03:56:39.179Z,-0.20
2022-11-14T03:59:05.842Z,-0.40
2022-11-14T04:01:32.496Z,-0.50
2022-11-14T04:03:59.123Z,-0.60
2022-11-14T04:06:25.780Z,-0.50
2022-11-14T04:08:52.534Z,-0.60
2022-11-14T04:11:19.443Z,-0.60
2022-11-14T04:13:46.077Z,-0.60
2022-11-14T04:16:12.755Z,-0.50
2022-11-14T04:18:39.488Z,-0.40
2022-11-14T04:21:06.157Z,-0.60
2022-11-14T04:23:33.205Z,0.60
2022-11-14T04:25:59.936Z,-0.30
2022-11-14T04:28:26.855Z,-0.40
2022-11-14T04:30:53.662Z,-0.60
2022-11-14T04:33:20.390Z,-0.50
2022-11-14T04:35:47.065Z,-0.40
2022-11-14T04:38:13.739Z,-0.50
2022-11-14T04:40:40.412Z,0.40
2022-11-14T04:43:07.040Z,-0.60
2022-11-14T04:45:33.776Z,-0.40
2022-11-14T04:48:00.519Z,-0.40
2022-11-14T04:50:27.214Z,-0.30
2022-11-14T04:52:54.169Z,-0.50
2022-11-14T04:55:20.857Z,-0.30
2022-11-14T04:57:47.533Z,-0.50
2022-11-14T05:00:14.552Z,-0.50
2022-11-14T05:02:41.234Z,-0.50
2022-11-14T05:05:08.072Z,-0.70
2022-11-14T05:07:34.834Z,-0.50
2022-11-14T05:10:01.563Z,-0.70
2022-11-14T05:12:28.202Z,-0.70
2022-11-14T05:14:54.869Z,-0.80
2022-11-14T05:17:21.530Z,-0.60
2022-11-14T05:19:48.204Z,-0.60
2022-11-14T05:22:14.861Z,-0.50
2022-11-14T05:24:41.551Z,-0.40
2022-11-14T05:27:08.381Z,-0.50
2022-11-14T05:29:35.086Z,-0.50
2022-11-14T05:32:01.706Z,-0.50
2022-11-14T05:34:28.452Z,-0.50
2022-11-14T05:36:55.124Z,-0.60
2022-11-14T05:39:21.795Z,-0.60
2022-11-14T05:41:48.429Z,-0.60
2022-11-14T05:44:15.069Z,-0.70
2022-11-14T05:46:41.748Z,-0.90
2022-11-14T05:49:08.471Z,-1.10
2022-11-14T05:51:35.145Z,-0.80
2022-11-14T05:54:01.951Z,-0.80
2022-11-14T05:56:28.605Z,-0.40
2022-11-14T05:58:55.253Z,-1.50
2022-11-14T06:01:21.984Z,-1.30
2022-11-14T06:03:49.103Z,-1.10
2022-11-14T06:06:17.206Z,-0.90
2022-11-14T06:08:44.219Z,-0.90
2022-11-14T06:11:20.414Z,-0.80
2022-11-14T06:13:47.231Z,-0.80
2022-11-14T06:16:15.486Z,-1.40
2022-11-14T06:18:42.097Z,-0.70
2022-11-14T06:21:08.660Z,-0.70
2022-11-14T06:23:35.236Z,-0.60
2022-11-14T06:26:02.738Z,-0.60
2022-11-14T06:28:29.943Z,-0.70
2022-11-14T06:31:00.368Z,-0.70
2022-11-14T06:33:33.321Z,-0.70
2022-11-14T06:36:00.909Z,-0.60
2022-11-14T06:38:28.177Z,-0.50
2022-11-14T06:41:01.428Z,-0.30
2022-11-14T06:43:28.031Z,-0.20
2022-11-14T06:45:55.064Z,-0.20
2022-11-14T06:48:21.628Z,-0.30
2022-11-14T06:50:54.921Z,-0.50
2022-11-14T06:53:21.988Z,-0.50
2022-11-14T06:55:55.983Z,-0.60
2022-11-14T06:58:22.800Z,-0.60
2022-11-14T07:00:49.388Z,-0.40
2022-11-14T07:03:16.089Z,-0.10
2022-11-14T07:05:42.743Z,0.00
2022-11-14T07:08:09.353Z,0.30
2022-11-14T07:10:36.080Z,0.40
2022-11-14T07:13:02.690Z,0.80
2022-11-14T07:15:29.240Z,1.00
2022-11-14T07:17:55.784Z,1.20
2022-11-14T07:20:22.398Z,1.30
2022-11-14T07:22:49.018Z,1.40
2022-11-14T07:25:15.647Z,1.50
2022-11-14T07:27:42.264Z,1.60
2022-11-14T07:32:35.861Z,1.90
2022-11-14T07:35:02.852Z,1.90
2022-11-14T07:37:29.594Z,2.10
2022-11-14T07:39:56.454Z,2.10
2022-11-14T07:42:23.064Z,2.20
2022-11-14T07:47:17.004Z,2.50
2022-11-14T07:49:43.616Z,2.70
2022-11-14T07:52:10.227Z,2.70
2022-11-14T07:54:37.659Z,2.80
2022-11-14T07:57:07.075Z,2.90
2022-11-14T07:59:33.765Z,3.10
2022-11-14T08:02:00.548Z,2.80
2022-11-14T08:04:27.202Z,3.20
2022-11-14T08:06:53.922Z,3.30
2022-11-14T08:09:20.606Z,3.30
2022-11-14T08:11:50.246Z,3.60
2022-11-14T08:14:16.910Z,3.60
2022-11-14T08:16:43.562Z,3.90
2022-11-14T08:19:10.171Z,4.00
2022-11-14T08:21:36.783Z,4.20
2022-11-14T08:24:03.404Z,3.90
2022-11-14T08:26:34.095Z,4.80
2022-11-14T08:29:01.523Z,4.80
2022-11-14T08:31:28.239Z,4.80
2022-11-14T08:33:54.924Z,4.70
2022-11-14T08:36:21.568Z,4.80
2022-11-14T08:38:51.418Z,4.90
2022-11-14T08:41:18.275Z,5.00
2022-11-14T08:43:44.922Z,5.00
2022-11-14T08:46:11.560Z,6.40
2022-11-14T08:48:38.254Z,5.00
2022-11-14T08:51:05.874Z,5.50
2022-11-14T08:53:33.794Z,5.60
2022-11-14T08:56:00.450Z,6.90
2022-11-14T08:58:31.379Z,6.10
2022-11-14T09:01:03.483Z,6.10
2022-11-14T09:03:30.204Z,6.20
2022-11-14T09:05:58.374Z,6.40
2022-11-14T09:08:25.513Z,6.50
2022-11-14T09:10:52.127Z,6.60
2022-11-14T09:13:18.875Z,6.70
2022-11-14T09:15:45.545Z,7.40
2022-11-14T09:18:12.512Z,6.90
2022-11-14T09:20:40.554Z,7.10
2022-11-14T09:23:07.649Z,8.60
2022-11-14T09:28:05.369Z,7.20
2022-11-14T09:30:32.313Z,7.40
2022-11-14T09:33:00.012Z,7.70
2022-11-14T09:35:27.281Z,7.90
2022-11-14T09:38:04.424Z,8.50
2022-11-14T09:40:39.181Z,8.10
2022-11-14T09:43:11.819Z,8.60
2022-11-14T09:45:41.001Z,8.20
2022-11-14T10:00:36.609Z,8.80
2022-11-14T10:03:11.251Z,8.40
2022-11-14T10:55:00.066Z,10.40
2022-11-14T10:57:28.913Z,10.40
2022-11-14T10:59:57.195Z,10.80
2022-11-14T11:02:24.526Z,10.60
2022-11-14T11:08:10.199Z,10.90
2022-11-14T11:11:05.728Z,10.80
2022-11-14T11:13:33.783Z,11.00
2022-11-14T11:16:01.221Z,11.10
2022-11-14T11:23:25.338Z,12.40
2022-11-14T11:26:07.924Z,13.10
2022-11-14T11:28:36.021Z,12.70
2022-11-14T11:33:31.087Z,13.10
2022-11-14T11:36:03.423Z,13.90
2022-11-14T11:38:31.817Z,13.00
2022-11-14T11:41:03.281Z,13.50
2022-11-14T11:43:38.953Z,13.00
2022-11-14T11:48:40.047Z,12.40
2022-11-14T11:56:05.037Z,13.40
2022-11-14T11:58:50.618Z,13.30
2022-11-14T12:01:18.015Z,13.80
2022-11-14T12:03:47.600Z,13.80
2022-11-14T12:06:24.906Z,15.60
2022-11-14T12:09:10.340Z,13.80
2022-11-14T12:11:38.124Z,14.20
2022-11-14T12:14:23.501Z,15.20
2022-11-14T12:19:58.556Z,13.20
2022-11-14T12:22:37.168Z,13.70
2022-11-14T12:37:38.326Z,15.00
2022-11-14T12:40:18.247Z,15.00
2022-11-14T12:42:52.632Z,15.90
2022-11-14T12:45:46.031Z,15.90
2022-11-14T12:52:19.546Z,16.50
2022-11-14T12:58:05.082Z,16.40
2022-11-14T13:00:37.264Z,16.00
2022-11-14T13:03:26.254Z,15.50
2022-11-14T13:06:11.834Z,17.00
2022-11-14T13:08:57.912Z,17.80
2022-11-14T13:11:55.495Z,18.20
2022-11-14T13:14:40.848Z,18.30
2022-11-14T13:17:30.154Z,17.60
2022-11-14T13:20:15.855Z,18.50
2022-11-14T13:22:43.634Z,18.70
2022-11-14T13:25:18.235Z,18.60
2022-11-14T13:28:06.440Z,18.50
2022-11-14T13:30:50.634Z,18.20
2022-11-14T13:33:36.111Z,18.10
2022-11-14T13:36:05.487Z,18.20
2022-11-14T13:39:05.399Z,18.20
2022-11-14T13:41:47.557Z,18.40
2022-11-14T13:44:33.211Z,18.50
2022-11-14T13:49:26.961Z,19.30
2022-11-14T13:51:54.008Z,19.40
2022-11-14T13:54:20.934Z,18.80
2022-11-14T13:57:06.430Z,18.70
2022-11-14T14:00:07.113Z,16.30
2022-11-14T14:02:33.748Z,14.80
2022-11-14T14:05:10.652Z,14.80
2022-11-14T14:07:52.744Z,16.70
2022-11-14T14:10:26.505Z,17.40
2022-11-14T14:12:53.255Z,17.30
2022-11-14T14:15:19.975Z,17.60
2022-11-14T14:17:53.972Z,17.20
2022-11-14T14:20:26.698Z,17.20
2022-11-14T14:22:56.373Z,17.30
2022-11-14T14:25:22.964Z,17.20
2022-11-14T14:28:05.324Z,17.90
2022-11-14T14:30:32.688Z,18.10
2022-11-14T14:33:08.501Z,18.50
2022-11-14T14:35:40.353Z,17.90
2022-11-14T14:38:21.372Z,17.50
2022-11-14T14:40:48.149Z,16.00
2022-11-14T14:45:47.158Z,13.70
2022-11-14T14:48:22.940Z,13.10
2022-11-14T14:50:50.908Z,13.10
2022-11-14T14:53:37.755Z,14.10
2022-11-14T14:56:34.578Z,13.40
2022-11-14T14:59:16.757Z,12.50
2022-11-14T15:04:17.555Z,12.30
2022-11-14T15:07:16.822Z,12.20
2022-11-14T15:10:02.792Z,12.90
2022-11-14T15:12:34.017Z,13.40
2022-11-14T15:15:04.591Z,13.40
2022-11-14T15:17:35.932Z,13.80
2022-11-14T15:20:07.322Z,13.00
2022-11-14T15:22:40.398Z,12.80
2022-11-14T15:25:25.864Z,12.30
2022-11-14T15:27:54.222Z,12.10
2022-11-14T15:30:32.217Z,12.70
2022-11-14T15:33:07.349Z,11.80
2022-11-14T15:35:38.180Z,11.70
2022-11-14T15:38:42.152Z,11.60
2022-11-14T15:41:17.043Z,11.50
2022-11-14T15:46:26.903Z,11.20
2022-11-14T15:48:53.676Z,11.20
2022-11-14T15:51:37.869Z,11.10
2022-11-14T15:54:04.531Z,11.30
2022-11-14T15:56:31.303Z,12.50
2022-11-14T15:58:57.956Z,10.80
2022-11-14T16:01:27.582Z,11.40
2022-11-14T16:03:54.410Z,10.90
2022-11-14T16:06:21.908Z,10.60
2022-11-14T16:08:48.608Z,10.50
2022-11-14T16:11:15.263Z,11.40
2022-11-14T16:13:41.954Z,10.10
2022-11-14T16:16:08.604Z,11.30
2022-11-14T16:18:35.260Z,10.10
2022-11-14T16:21:01.983Z,10.20
2022-11-14T16:25:56.064Z,10.30
2022-11-14T16:28:22.748Z,10.40
2022-11-14T16:30:49.408Z,10.80
2022-11-14T16:33:16.067Z,10.50
2022-11-14T16:35:42.696Z,9.90
2022-11-14T16:38:12.332Z,10.00
2022-11-14T16:40:43.318Z,9.80
2022-11-14T16:43:12.065Z,10.20
2022-11-14T16:45:40.150Z,9.70
2022-11-14T16:48:06.838Z,10.50
2022-11-14T16:50:33.544Z,10.30
2022-11-14T16:53:01.439Z,9.50
2022-11-14T16:55:28.074Z,9.70
2022-11-14T16:57:54.769Z,10.60
2022-11-14T17:00:21.458Z,10.50
2022-11-14T17:02:48.177Z,8.70
2022-11-14T17:05:14.955Z,10.20
2022-11-14T17:07:41.649Z,9.40
2022-11-14T17:10:08.524Z,10.70
2022-11-14T17:12:35.465Z,9.20
2022-11-14T17:15:02.150Z,9.90
2022-11-14T17:17:28.830Z,9.40
2022-11-14T17:19:55.549Z,9.70
2022-11-14T17:22:22.299Z,8.80
2022-11-14T17:24:48.992Z,9.30
2022-11-14T17:27:15.621Z,8.60
2022-11-14T17:29:42.870Z,9.20
2022-11-14T17:32:10.869Z,8.40
2022-11-14T17:34:39.876Z,8.10
2022-11-14T17:37:07.278Z,7.70
2022-11-14T17:39:35.383Z,8.00
2022-11-14T17:42:07.446Z,7.90
2022-11-14T17:44:38.511Z,7.90
2022-11-14T17:47:08.240Z,8.10
2022-11-14T17:49:36.920Z,8.10
2022-11-14T17:52:04.811Z,7.70
2022-11-14T17:54:37.998Z,7.50
2022-11-14T17:57:12.702Z,6.90
2022-11-14T17:59:49.992Z,8.20
2022-11-14T18:02:23.875Z,7.10
2022-11-14T18:04:50.552Z,6.80
2022-11-14T18:10:11.260Z,7.00
2022-11-14T18:12:38.199Z,7.70
2022-11-14T18:15:06.276Z,6.40
2022-11-14T18:17:37.060Z,6.80
2022-11-14T18:20:07.520Z,6.70
2022-11-14T18:22:34.495Z,7.10
2022-11-14T18:25:07.443Z,6.70
2022-11-14T18:27:34.661Z,6.80
2022-11-14T18:30:13.761Z,8.20
2022-11-14T18:32:51.081Z,6.80
2022-11-14T18:35:38.935Z,7.00
2022-11-14T18:38:05.564Z,7.20
2022-11-14T18:40:32.502Z,7.50
2022-11-14T18:42:59.076Z,7.50
2022-11-14T18:45:25.681Z,7.40
2022-11-14T18:47:52.273Z,7.30
2022-11-14T18:50:20.965Z,7.40
2022-11-14T18:52:50.627Z,8.00
2022-11-14T18:55:20.767Z,7.70
2022-11-14T18:57:55.637Z,7.70
2022-11-14T19:00:34.923Z,7.20
2022-11-14T19:03:25.826Z,7.60
2022-11-14T19:05:52.571Z,7.40
2022-11-14T19:08:19.517Z,7.60
2022-11-14T19:10:51.670Z,7.30
2022-11-14T19:13:23.528Z,7.20
2022-11-14T19:15:50.199Z,7.10
2022-11-14T19:18:16.852Z,8.10
2022-11-14T19:20:43.578Z,8.20
2022-11-14T19:23:10.214Z,7.20
2022-11-14T19:25:38.140Z,7.20
2022-11-14T19:28:04.902Z,7.30
2022-11-14T19:30:31.565Z,7.30
2022-11-14T19:32:58.238Z,7.70
2022-11-14T19:35:24.893Z,7.80
2022-11-14T19:37:51.607Z,7.80
2022-11-14T19:40:18.304Z,7.80
2022-11-14T19:42:45.066Z,7.70
2022-11-14T19:45:11.752Z,7.60
2022-11-14T19:47:38.499Z,8.20
2022-11-14T19:50:05.337Z,7.60
2022-11-14T19:52:32.014Z,7.50
2022-11-14T19:54:58.679Z,7.60
2022-11-14T19:57:25.345Z,7.50
2022-11-14T19:59:52.557Z,8.30
2022-11-14T20:02:19.281Z,7.40
2022-11-14T20:04:46.832Z,7.70
2022-11-14T20:07:13.574Z,7.60
2022-11-14T20:09:40.322Z,7.20
2022-11-14T20:12:07.044Z,7.20
2022-11-14T20:14:33.702Z,7.00
2022-11-14T20:17:00.383Z,6.90
2022-11-14T20:19:27.733Z,6.60
2022-11-14T20:21:54.453Z,6.80
2022-11-14T20:24:22.612Z,6.80
2022-11-14T20:26:49.306Z,7.20
2022-11-14T20:29:15.950Z,6.30
2022-11-14T20:31:42.596Z,5.90
2022-11-14T20:34:10.186Z,5.80
2022-11-14T20:37:08.673Z,6.90
2022-11-14T20:39:23.561Z,6.20
2022-11-14T20:41:50.172Z,8.10
2022-11-14T20:44:18.921Z,5.90
2022-11-14T20:46:45.645Z,6.50
2022-11-14T20:49:12.329Z,5.80
2022-11-14T20:51:39.037Z,7.60
2022-11-14T20:54:05.786Z,6.10
2022-11-14T20:56:32.488Z,6.90
2022-11-14T20:58:59.238Z,6.30
2022-11-14T21:01:25.968Z,6.50
2022-11-14T21:03:52.733Z,6.40
2022-11-14T21:06:19.392Z,6.30
2022-11-14T21:08:46.081Z,6.20
2022-11-14T21:11:13.787Z,6.00
2022-11-14T21:13:59.177Z,7.00
2022-11-14T21:16:33.638Z,5.80
2022-11-14T21:19:00.802Z,6.00
2022-11-14T21:21:28.469Z,5.70
2022-11-14T21:23:55.281Z,5.60
2022-11-14T21:26:26.280Z,6.60
2022-11-14T21:28:57.427Z,5.90
2022-11-14T21:31:34.223Z,5.80
2022-11-14T21:34:02.057Z,5.80
2022-11-14T21:36:46.392Z,5.90
2022-11-14T21:39:15.228Z,5.60
2022-11-14T21:41:42.760Z,5.50
2022-11-14T21:44:10.456Z,5.80
2022-11-14T21:46:37.113Z,5.60
2022-11-14T21:49:03.764Z,5.60
2022-11-14T21:51:30.515Z,5.50
2022-11-14T21:54:00.263Z,5.60
2022-11-14T21:56:28.006Z,6.80
2022-11-14T21:59:12.807Z,5.90
2022-11-14T22:01:59.612Z,5.90
2022-11-14T22:04:26.577Z,5.90
2022-11-14T22:06:53.465Z,6.00
2022-11-14T22:09:20.579Z,5.90
2022-11-14T22:11:47.206Z,6.00
2022-11-14T22:14:13.848Z,5.80
2022-11-14T22:16:43.269Z,5.80
2022-11-14T22:19:09.967Z,5.70
2022-11-14T22:21:36.581Z,5.70
2022-11-14T22:24:07.870Z,5.70
2022-11-14T22:26:40.404Z,5.70
2022-11-14T22:32:06.213Z,5.70
2022-11-14T22:34:36.801Z,5.60
2022-11-14T22:37:05.788Z,5.50
2022-11-14T22:39:32.457Z,5.40
2022-11-14T22:42:05.038Z,5.30
2022-11-14T22:44:31.626Z,5.40
2022-11-14T22:46:58.222Z,5.40
2022-11-14T22:49:24.833Z,5.50
2022-11-14T22:51:51.426Z,5.10
2022-11-14T22:54:22.773Z,5.10
2022-11-14T22:57:02.638Z,5.20
2022-11-14T22:59:29.220Z,5.50
2022-11-14T23:01:58.711Z,5.40
2022-11-14T23:04:55.370Z,5.70
2022-11-14T23:07:23.251Z,5.70
2022-11-14T23:09:56.103Z,6.50
2022-11-14T23:12:24.250Z,5.80
2022-11-14T23:14:50.835Z,5.80
2022-11-14T23:17:39.382Z,5.80
2022-11-14T23:20:15.116Z,5.80
2022-11-14T23:22:47.858Z,5.80
2022-11-14T23:25:14.733Z,5.90
2022-11-14T23:27:41.416Z,5.90
2022-11-14T23:30:08.359Z,7.30
2022-11-14T23:32:35.088Z,6.00
2022-11-14T23:35:01.816Z,6.00
2022-11-14T23:37:28.425Z,5.90
2022-11-14T23:39:55.023Z,5.90
2022-11-14T23:42:21.721Z,6.10
2022-11-14T23:44:48.408Z,5.80
2022-11-14T23:47:15.051Z,5.60
2022-11-14T23:49:41.765Z,6.60
2022-11-14T23:52:08.463Z,6.00
2022-11-14T23:54:35.102Z,5.50
2022-11-14T23:57:04.661Z,5.40
2022-11-14T23:59:31.571Z,5.90
